Flight Track Log - Related Links

Times and Time Zones

All times are in EDT time to prevent confusion due to time zone crossing. See the UAL4575 flight status page for this flight to view local times or setup timezone preferences in your user account.

Time Position Orientation Groundspeed Altitude Reporting Facility
EDT Latitude Longitude Course Direction KTS MPH feet Rate Location/Type
Mon 06:18:54 PM 42.9500 -87.8833 77° East 161 185 1,300  Level KMKE
Mon 06:19:24 PM 42.9558 -87.8494 77° East 185 213 2,300 1,565 Climbing Chicago Center
Mon 06:20:26 PM 42.9644 -87.7731 81° East 211 243 3,700 1,694 Climbing Chicago Center
Mon 06:21:28 PM 42.9731 -87.6747 83° East 249 287 5,800 2,177 Climbing Chicago Center
Mon 06:22:30 PM 42.9828 -87.5550 84° East 271 312 8,200 1,920 Climbing Chicago Center
Mon 06:23:33 PM 42.9786 -87.4453 93° East 289 333 9,800 1,344 Climbing Chicago Center
Mon 06:24:35 PM 42.9808 -87.3372 88° East 307 353 11,000 1,065 Climbing Chicago Center
Mon 06:25:37 PM 42.9903 -87.2064 84° East 343 395 12,000 1,306 Climbing Chicago Center
Mon 06:26:39 PM 43.0028 -87.0425 84° East 361 415 13,700 1,403 Climbing Chicago Center
Mon 06:27:41 PM 43.0142 -86.9039 84° East 367 422 14,900 1,113 Climbing Chicago Center
Mon 06:28:43 PM 43.0250 -86.7639 84° East 371 427 16,000 1,065 Climbing Chicago Center
Mon 06:29:45 PM 43.0353 -86.6189 84° East 381 438 17,100 919 Climbing Chicago Center
Mon 06:30:47 PM 43.0467 -86.4733 84° East 385 443 17,900 871 Climbing Chicago Center
Mon 06:31:49 PM 43.0572 -86.3247 84° East 393 452 18,900 1,113 Climbing Chicago Center
Mon 06:32:51 PM 43.0700 -86.1422 84° East 400 460 20,200 1,161 Climbing Chicago Center
Mon 06:33:53 PM 43.0814 -85.9847 84° East 402 463 21,300 919 Climbing Chicago Center
Mon 06:34:55 PM 43.0889 -85.8531 85° East 407 468 22,100 864 Climbing Chicago Center
Mon 06:35:58 PM 43.1017 -85.6639 85° East 414 476 23,100 1,008 Climbing Chicago Center
Mon 06:37:00 PM 43.1117 -85.5042 85° East 419 482 24,200 1,113 Climbing Chicago Center
Mon 06:38:02 PM 43.1219 -85.3497 85° East 413 475 25,400 1,175 Climbing Chicago Center
Mon 06:38:37 PM 43.1267 -85.2461 86° East 406 467 26,100 1,137 Climbing Cleveland Center
Mon 06:39:37 PM 43.1369 -85.0933 85° East 401 461 27,200 1,050 Climbing Cleveland Center
Mon 06:40:37 PM 43.1469 -84.9403 85° East 401 461 28,200 1,050 Climbing Cleveland Center
Mon 06:41:37 PM 43.1547 -84.7928 86° East 401 461 29,300 1,050 Climbing Cleveland Center
Mon 06:42:37 PM 43.1619 -84.6422 86° East 401 461 30,300 850 Climbing Cleveland Center
Mon 06:43:37 PM 43.1692 -84.4947 86° East 395 455 31,000 350 Climbing Cleveland Center
Mon 06:44:37 PM 43.1756 -84.3669 86° East 400 460 31,000  Level Cleveland Center
Mon 06:45:37 PM 43.1856 -84.1881 86° East 411 473 31,000 -550 Level Cleveland Center
Mon 06:46:37 PM 43.1947 -84.0206 86° East 428 493 29,900 -1,000 Descending Cleveland Center
Mon 06:47:37 PM 43.2039 -83.8500 86° East 439 505 29,000 -450 Descending Cleveland Center
Mon 06:48:37 PM 43.2128 -83.6739 86° East 450 518 29,000  Level Cleveland Center
Mon 06:49:37 PM 43.2194 -83.5033 87° East 455 524 29,000  Level Cleveland Center
Mon 06:50:37 PM 43.2300 -83.3272 85° East 455 524 29,000  Level Cleveland Center
Mon 06:51:37 PM 43.2358 -83.1564 87° East 455 524 29,000  Level Cleveland Center
Mon 06:52:37 PM 43.2439 -82.9858 86° East 455 524 29,000  Level Cleveland Center
Mon 06:53:37 PM 43.2514 -82.8150 86° East 455 524 29,000  Level Cleveland Center
Mon 06:54:37 PM 43.2442 -82.6436 93° East 450 518 29,000  Level Cleveland Center
Mon 06:55:37 PM 43.2219 -82.4778 100° East 450 518 29,000  Level Cleveland Center
Mon 06:56:42 PM 43.1833 -82.2667 104° East 450 518 29,000  Level Toronto Center
Mon 06:57:42 PM 43.1500 -82.1000 105° East 450 518 29,000  Level Toronto Center
Mon 06:58:42 PM 43.1333 -81.9167 97° East 450 518 29,000  Level Toronto Center
Mon 06:59:42 PM 43.1167 -81.7500 98° East 450 518 29,000  Level Toronto Center
Mon 07:00:42 PM 43.1000 -81.6000 99° East 450 518 29,000  Level Toronto Center
Mon 07:01:42 PM 43.0667 -81.4167 104° East 450 518 29,000  Level Toronto Center
Mon 07:02:42 PM 43.0500 -81.2500 98° East 450 518 29,000  Level Toronto Center
Mon 07:03:42 PM 43.0500 -81.0667 90° East 450 518 29,000  Level Toronto Center
Mon 07:04:42 PM 43.0333 -80.9167 99° East 460 529 29,000  Level Toronto Center
Mon 07:05:42 PM 43.0333 -80.7333 90° East 460 529 29,000  Level Toronto Center
Mon 07:06:42 PM 43.0333 -80.5667 90° East 460 529 29,000  Level Toronto Center
Mon 07:07:42 PM 43.0167 -80.3833 97° East 460 529 29,000  Level Toronto Center
Mon 07:08:42 PM 43.0167 -80.2000 90° East 460 529 29,000  Level Toronto Center
Mon 07:09:42 PM 43.0000 -80.0500 99° East 460 529 29,000  Level Toronto Center
Mon 07:10:42 PM 43.0000 -79.8667 90° East 460 529 29,000  Level Toronto Center
Mon 07:11:42 PM 42.9833 -79.7000 98° East 460 529 29,000  Level Toronto Center
Mon 07:12:42 PM 42.9667 -79.5167 97° East 460 529 29,000  Level Toronto Center
Mon 07:13:42 PM 42.9667 -79.3333 90° East 460 529 29,000  Level Toronto Center
Mon 07:14:42 PM 42.9500 -79.1833 99° East 460 529 29,000  Level Toronto Center
Mon 07:15:42 PM 42.9500 -79.0000 90° East 460 529 29,000  Level Toronto Center
Mon 07:16:42 PM 42.9333 -78.8333 98° East 460 529 29,000  Level Toronto Center
Mon 07:17:49 PM 42.9322 -78.6747 90° East 458 527 29,000  Level Cleveland Center
Mon 07:18:49 PM 42.9147 -78.5025 98° East 458 527 29,000  Level Cleveland Center
Mon 07:19:49 PM 42.8967 -78.3303 98° East 458 527 29,000  Level Cleveland Center
Mon 07:20:49 PM 42.8789 -78.1608 98° East 459 528 29,000 -100 Level Cleveland Center
Mon 07:21:49 PM 42.8603 -77.9858 98° East 459 528 28,800 -500 Descending Cleveland Center
Mon 07:22:49 PM 42.8439 -77.8167 97° East 464 534 28,000 -450 Descending Cleveland Center
Mon 07:23:49 PM 42.8208 -77.6450 100° East 464 534 27,900 -347 Descending Cleveland Center
Mon 07:25:42 PM 42.7500 -77.2667 104° East 460 529 27,000 -318 Descending Toronto Center
Mon 07:26:39 PM 42.7444 -77.1567 94° East 478 550 27,000  Level Boston Center
Mon 07:27:39 PM 42.7178 -76.9908 102° East 472 543 27,000  Level Boston Center
Mon 07:28:39 PM 42.6911 -76.8219 102° East 454 522 27,000  Level Boston Center
Mon 07:29:39 PM 42.6622 -76.6506 103° East 448 516 27,000  Level Boston Center
Mon 07:30:39 PM 42.6069 -76.5083 118° Southeast 438 504 27,000  Level Boston Center
Mon 07:31:39 PM 42.5431 -76.3689 122° Southeast 430 495 27,000  Level Boston Center
Mon 07:32:39 PM 42.4811 -76.2269 121° Southeast 430 495 27,000  Level Boston Center
Mon 07:33:39 PM 42.4167 -76.0881 122° Southeast 436 502 27,000  Level Boston Center
Mon 07:34:39 PM 42.3544 -75.9494 121° Southeast 441 507 27,000 -850 Level Boston Center
Mon 07:35:39 PM 42.2942 -75.8114 121° Southeast 441 507 25,300 -1,400 Descending Boston Center
Mon 07:36:39 PM 42.2369 -75.6933 123° Southeast 414 476 24,200 -1,600 Descending Boston Center
Mon 07:37:39 PM 42.1861 -75.5756 120° Southeast 384 442 22,100 -2,100 Descending Boston Center
Mon 07:38:39 PM 42.1350 -75.4667 122° Southeast 362 417 20,000 -1,900 Descending Boston Center
Mon 07:39:39 PM 42.0856 -75.3608 122° Southeast 351 404 18,300 -1,000 Descending Boston Center
Mon 07:40:39 PM 42.0403 -75.2553 120° Southeast 339 390 18,000 -150 Descending Boston Center
Mon 07:41:39 PM 42.0011 -75.1472 116° Southeast 321 369 18,000  Level Boston Center
Mon 07:42:39 PM 41.9600 -75.0422 118° Southeast 315 362 18,000  Level Boston Center
Mon 07:43:39 PM 41.9147 -74.9203 116° Southeast 323 372 18,000 -150 Level Boston Center
Mon 07:44:39 PM 41.8772 -74.8242 118° Southeast 328 377 17,700 -700 Descending Boston Center
Mon 07:45:39 PM 41.8317 -74.7081 118° Southeast 323 372 16,600 -1,050 Descending Boston Center
Mon 07:46:39 PM 41.7939 -74.6119 118° Southeast 313 360 15,600 -1,050 Descending Boston Center
Mon 07:47:39 PM 41.7622 -74.5192 115° Southeast 285 328 14,500 -1,100 Descending Boston Center
Mon 07:48:39 PM 41.7431 -74.4267 105° East 268 308 13,400 -1,300 Descending Boston Center
Mon 07:49:39 PM 41.7239 -74.3397 106° East 253 291 11,900 -1,400 Descending Boston Center
Mon 07:50:39 PM 41.6769 -74.2744 134° Southeast 239 275 10,600 -1,400 Descending Boston Center
Mon 07:51:39 PM 41.6169 -74.2506 163° South 218 251 9,100 -1,300 Descending Boston Center
Mon 07:52:39 PM 41.5619 -74.2878 207° Southwest 218 251 8,000 -1,000 Descending Boston Center
Mon 07:53:39 PM 41.5072 -74.3278 209° Southwest 233 268 7,100 -260 Descending Boston Center
Mon 07:56:07 PM 41.3667 -74.4167 205° Southwest 230 265 7,100  Level New York TRACON
Mon 07:57:01 PM 41.3167 -74.4333 194° South 233 268 7,100 -200 Level New York TRACON
Mon 07:58:07 PM 41.2333 -74.4667 197° South 235 270 6,700 -476 Descending New York TRACON
Mon 07:59:07 PM 41.1833 -74.4833 194° South 223 257 6,100 -300 Descending New York TRACON
Mon 08:00:07 PM 41.1167 -74.5167 201° Southwest 229 264 6,100  Level New York TRACON
Mon 08:01:13 PM 41.0500 -74.5500 201° Southwest 226 260 6,100 -286 Level New York TRACON
Mon 08:02:13 PM 41.0000 -74.5667 194° South 224 258 5,500 -500 Descending New York TRACON
Mon 08:03:13 PM 40.9333 -74.5667 180° South 216 249 5,100 -211 Descending New York TRACON
Mon 08:04:07 PM 40.8833 -74.5667 180° South 219 252 5,100  Level New York TRACON
Mon 08:05:07 PM 40.8167 -74.5667 180° South 227 261 5,100  Level New York TRACON
Mon 08:06:13 PM 40.7500 -74.5833 191° South 229 264 5,100  Level New York TRACON
Mon 08:07:07 PM 40.7000 -74.5833 180° South 204 235 5,100  Level New York TRACON
Mon 08:08:07 PM 40.6333 -74.5833 180° South 195 224 5,100  Level New York TRACON
Mon 08:09:13 PM 40.5833 -74.5833 180° South 202 232 5,100  Level New York TRACON
Mon 08:10:13 PM 40.5167 -74.6000 191° South 197 227 5,100  Level New York TRACON
Mon 08:11:07 PM 40.4667 -74.6000 180° South 200 230 5,100 -400 Level New York TRACON
Mon 08:12:13 PM 40.4333 -74.5833 159° South 179 206 4,300 -476 Descending New York TRACON
Mon 08:13:13 PM 40.4000 -74.5333 131° Southeast 164 189 4,100 -263 Descending New York TRACON
Mon 08:14:07 PM 40.3833 -74.4833 114° Southeast 176 203 3,800 -474 Descending New York TRACON
Mon 08:15:07 PM 40.4167 -74.4333 49° Northeast 169 194 3,200 -333 Descending New York TRACON
Mon 08:16:13 PM 40.4500 -74.3833 49° Northeast 163 188 3,100 -48 Descending New York TRACON
Mon 08:17:13 PM 40.4833 -74.3333 49° Northeast 169 194 3,100  Level New York TRACON
Mon 08:18:13 PM 40.5000 -74.2833 66° East 163 188 3,100  Level New York TRACON
Mon 08:19:07 PM 40.5500 -74.2667 14° North 174 200 3,100 -450 Level New York TRACON
Mon 08:20:13 PM 40.5833 -74.2333 37° Northeast 173 199 2,200 -818 Descending New York TRACON

Login

Don't have an account? Register now (free) for customized features, flight alerts, and more!